createdAt,value
2023-03-04T00:02:06.873Z,65.87
2023-03-04T00:04:36.130Z,66.08
2023-03-04T00:07:05.488Z,66.48
2023-03-04T00:09:34.585Z,66.39
2023-03-04T00:12:04.501Z,66.23
2023-03-04T00:14:33.849Z,66.20
2023-03-04T00:17:04.877Z,66.44
2023-03-04T00:19:33.651Z,66.42
2023-03-04T00:22:04.605Z,66.36
2023-03-04T00:24:33.953Z,66.55
2023-03-04T00:27:03.540Z,66.45
2023-03-04T00:29:32.799Z,66.76
2023-03-04T00:32:01.873Z,67.00
2023-03-04T00:34:32.860Z,67.05
2023-03-04T00:37:04.097Z,67.15
2023-03-04T00:39:33.422Z,67.52
2023-03-04T00:42:03.297Z,67.77
2023-03-04T00:44:32.837Z,67.87
2023-03-04T00:47:02.271Z,67.86
2023-03-04T00:49:32.015Z,67.88
2023-03-04T00:52:01.552Z,68.44
2023-03-04T00:54:30.948Z,68.48
2023-03-04T00:57:00.370Z,68.24
2023-03-04T00:59:30.556Z,68.13
2023-03-04T01:02:00.232Z,67.72
2023-03-04T01:04:29.504Z,67.73
2023-03-04T01:06:58.454Z,67.78
2023-03-04T01:09:27.558Z,67.77
2023-03-04T01:11:56.547Z,68.03
2023-03-04T01:14:25.404Z,68.58
2023-03-04T01:16:54.264Z,68.59
2023-03-04T01:19:23.338Z,68.56
2023-03-04T01:21:52.113Z,68.52
2023-03-04T01:24:20.869Z,68.41
2023-03-04T01:26:49.875Z,68.75
2023-03-04T01:29:18.785Z,69.23
2023-03-04T01:31:47.896Z,68.97
2023-03-04T01:34:18.527Z,69.29
2023-03-04T01:36:47.535Z,69.71
2023-03-04T01:39:16.847Z,70.09
2023-03-04T01:41:45.854Z,69.88
2023-03-04T01:44:14.966Z,69.60
2023-03-04T01:46:50.559Z,69.56
2023-03-04T01:49:20.394Z,69.94
2023-03-04T01:51:55.391Z,69.93
2023-03-04T01:54:24.760Z,69.82
2023-03-04T01:57:01.615Z,69.80
2023-03-04T01:59:32.095Z,69.91
2023-03-04T02:02:01.585Z,69.92
2023-03-04T02:04:34.987Z,69.70
2023-03-04T02:07:05.135Z,69.58
2023-03-04T02:09:36.345Z,69.46
2023-03-04T02:12:05.336Z,69.63
2023-03-04T02:14:34.404Z,69.70
2023-03-04T02:17:03.562Z,69.30
2023-03-04T02:19:44.002Z,68.83
2023-03-04T02:22:13.337Z,68.10
2023-03-04T02:24:49.447Z,67.43
2023-03-04T02:27:20.403Z,67.31
2023-03-04T02:29:51.046Z,67.40
2023-03-04T02:32:20.874Z,68.11
2023-03-04T02:34:51.555Z,68.70
2023-03-04T02:37:22.154Z,68.99
2023-03-04T02:39:51.945Z,69.08
2023-03-04T02:42:21.138Z,68.99
2023-03-04T02:44:50.937Z,69.29
2023-03-04T02:47:20.328Z,69.44
2023-03-04T02:49:49.510Z,69.49
2023-03-04T02:52:23.506Z,69.41
2023-03-04T02:54:52.695Z,69.55
2023-03-04T02:57:21.428Z,69.62
2023-03-04T02:59:50.454Z,69.59
2023-03-04T03:02:19.496Z,69.63
2023-03-04T03:04:48.601Z,69.61
2023-03-04T03:07:17.706Z,69.74
2023-03-04T03:09:46.797Z,70.04
2023-03-04T03:12:16.243Z,69.88
2023-03-04T03:14:45.427Z,69.59
2023-03-04T03:17:14.650Z,69.79
2023-03-04T03:19:44.137Z,69.94
2023-03-04T03:22:13.242Z,70.08
2023-03-04T03:24:42.290Z,69.90
2023-03-04T03:27:11.428Z,69.83
2023-03-04T03:29:40.744Z,70.05
2023-03-04T03:32:09.735Z,70.11
2023-03-04T03:34:39.275Z,70.25
2023-03-04T03:37:08.517Z,69.93
2023-03-04T03:39:37.984Z,69.87
2023-03-04T03:42:07.040Z,69.90
2023-03-04T03:44:36.186Z,70.10
2023-03-04T03:47:05.608Z,69.97
2023-03-04T03:49:34.687Z,69.87
2023-03-04T03:52:03.772Z,70.21
2023-03-04T03:54:33.247Z,70.30
2023-03-04T03:57:01.927Z,70.26
2023-03-04T03:59:31.984Z,70.22
2023-03-04T04:02:01.018Z,70.26
2023-03-04T04:04:30.204Z,70.42
2023-03-04T04:06:59.718Z,70.65
2023-03-04T04:09:28.778Z,70.97
2023-03-04T04:11:57.797Z,70.93
2023-03-04T04:14:26.927Z,70.97
2023-03-04T04:16:55.887Z,71.17
2023-03-04T04:19:25.508Z,71.29
2023-03-04T04:21:54.896Z,71.54
2023-03-04T04:24:24.968Z,71.31
2023-03-04T04:26:54.162Z,71.31
2023-03-04T04:29:23.536Z,71.41
2023-03-04T04:31:53.093Z,71.37
2023-03-04T04:34:22.509Z,71.22
2023-03-04T04:36:51.672Z,71.32
2023-03-04T04:39:20.857Z,71.26
2023-03-04T04:41:50.335Z,71.13
2023-03-04T04:44:19.637Z,71.06
2023-03-04T04:46:49.698Z,71.13
2023-03-04T04:49:19.852Z,71.36
2023-03-04T04:51:50.101Z,71.73
2023-03-04T04:54:19.252Z,71.36
2023-03-04T04:56:48.185Z,71.30
2023-03-04T04:59:17.361Z,71.41
2023-03-04T05:01:46.196Z,71.62
2023-03-04T05:04:15.352Z,71.73
2023-03-04T05:06:44.464Z,71.66
2023-03-04T05:09:14.115Z,71.33
2023-03-04T05:11:42.909Z,71.82
2023-03-04T05:14:11.597Z,72.07
2023-03-04T05:16:40.680Z,72.20
2023-03-04T05:19:09.869Z,72.07
2023-03-04T05:21:38.956Z,72.21
2023-03-04T05:24:07.814Z,72.18
2023-03-04T05:26:36.710Z,72.18
2023-03-04T05:29:05.762Z,72.24
2023-03-04T05:31:34.721Z,72.05
2023-03-04T05:34:03.671Z,71.90
2023-03-04T05:36:32.607Z,72.24
2023-03-04T05:39:01.848Z,72.15
2023-03-04T05:41:31.025Z,71.77
2023-03-04T05:44:00.414Z,71.24
2023-03-04T05:46:31.185Z,71.35
2023-03-04T05:49:01.300Z,71.51
2023-03-04T05:51:30.266Z,71.47
2023-03-04T05:53:59.663Z,71.24
2023-03-04T05:56:30.636Z,71.54
2023-03-04T05:59:00.021Z,71.73
2023-03-04T06:01:29.074Z,71.73
2023-03-04T06:03:58.092Z,71.46
2023-03-04T06:06:27.177Z,71.32
2023-03-04T06:08:56.398Z,71.38
2023-03-04T06:11:25.299Z,71.34
2023-03-04T06:13:54.606Z,71.21
2023-03-04T06:16:23.786Z,70.79
2023-03-04T06:18:52.851Z,70.61
2023-03-04T06:21:22.093Z,69.54
2023-03-04T06:23:51.392Z,67.60
2023-03-04T06:26:20.917Z,65.78
2023-03-04T06:28:50.133Z,64.02
2023-03-04T06:31:19.353Z,62.06
2023-03-04T06:33:48.516Z,61.18
2023-03-04T06:36:17.911Z,59.92
2023-03-04T06:38:47.353Z,58.60
2023-03-04T06:41:16.636Z,57.32
2023-03-04T06:43:46.053Z,56.91
2023-03-04T06:46:15.558Z,56.06
2023-03-04T06:48:45.184Z,55.02
2023-03-04T06:51:14.892Z,53.91
2023-03-04T06:53:44.014Z,53.50
2023-03-04T06:56:18.774Z,52.62
2023-03-04T06:58:48.853Z,51.65
2023-03-04T07:01:18.099Z,50.63
2023-03-04T07:03:49.105Z,49.71
2023-03-04T07:06:22.499Z,48.50
2023-03-04T07:08:52.303Z,47.69
2023-03-04T07:11:22.985Z,46.53
2023-03-04T07:13:52.946Z,45.28
2023-03-04T07:16:24.277Z,43.78
2023-03-04T07:18:53.536Z,41.93
2023-03-04T07:21:22.534Z,40.53
2023-03-04T07:23:52.181Z,39.56
2023-03-04T07:26:22.061Z,38.26
2023-03-04T07:28:53.477Z,38.11
2023-03-04T07:31:26.017Z,37.36
2023-03-04T07:33:59.427Z,36.83
2023-03-04T07:36:29.637Z,36.47
2023-03-04T07:39:01.854Z,36.18
2023-03-04T07:41:31.766Z,35.92
2023-03-04T07:44:01.904Z,35.46
2023-03-04T07:46:31.642Z,35.32
2023-03-04T07:49:01.434Z,35.24
2023-03-04T07:51:31.087Z,35.19
2023-03-04T07:54:02.097Z,34.46
2023-03-04T07:56:34.490Z,34.11
2023-03-04T07:59:04.546Z,33.40
2023-03-04T08:01:37.338Z,33.35
2023-03-04T08:04:08.815Z,33.25
2023-03-04T08:06:40.841Z,32.80
2023-03-04T08:09:14.634Z,31.32
2023-03-04T08:11:44.605Z,31.04
2023-03-04T08:14:14.703Z,31.55
2023-03-04T08:16:43.766Z,31.48
2023-03-04T08:19:13.557Z,31.62
2023-03-04T08:21:43.188Z,31.19
2023-03-04T08:24:13.091Z,30.89
2023-03-04T08:26:45.731Z,29.86
2023-03-04T08:29:19.561Z,29.18
2023-03-04T08:31:50.004Z,28.99
2023-03-04T08:34:22.099Z,28.30
2023-03-04T08:36:50.780Z,27.48
2023-03-04T08:39:20.390Z,26.84
2023-03-04T08:41:50.045Z,26.73
2023-03-04T08:44:19.653Z,26.15
2023-03-04T08:46:48.802Z,25.70
2023-03-04T08:49:18.035Z,25.84
2023-03-04T08:51:46.911Z,25.80
2023-03-04T08:54:16.045Z,25.68
2023-03-04T08:56:44.997Z,24.76
2023-03-04T08:59:14.340Z,25.31
2023-03-04T09:01:43.683Z,26.38
2023-03-04T09:04:13.512Z,25.99
2023-03-04T09:06:43.256Z,25.65
2023-03-04T09:09:12.505Z,25.05
2023-03-04T09:11:41.717Z,25.52
2023-03-04T09:14:10.860Z,25.33
2023-03-04T09:16:40.185Z,24.58
2023-03-04T09:19:09.616Z,23.46
2023-03-04T09:21:40.224Z,22.93
2023-03-04T09:24:10.421Z,22.27
2023-03-04T09:26:40.892Z,22.66
2023-03-04T09:29:11.194Z,23.94
2023-03-04T09:31:40.556Z,24.57
2023-03-04T09:34:10.582Z,25.69
2023-03-04T09:36:41.347Z,26.75
2023-03-04T09:39:11.054Z,27.04
2023-03-04T09:41:50.633Z,25.92
2023-03-04T09:44:31.128Z,25.29
2023-03-04T09:47:07.410Z,25.29
2023-03-04T09:49:41.694Z,24.48
2023-03-04T09:52:50.750Z,25.14
2023-03-04T09:55:29.103Z,23.82
2023-03-04T09:57:58.084Z,22.11
2023-03-04T10:00:59.054Z,20.52
2023-03-04T10:04:17.442Z,19.58
2023-03-04T10:06:55.041Z,18.30
2023-03-04T10:09:41.643Z,17.80
2023-03-04T10:12:16.248Z,17.64
2023-03-04T10:15:08.336Z,17.59
2023-03-04T10:17:49.107Z,17.20
2023-03-04T10:20:50.795Z,16.95
2023-03-04T10:23:25.134Z,16.63
2023-03-04T10:25:56.970Z,16.40
2023-03-04T10:28:36.199Z,16.54
2023-03-04T10:31:31.827Z,16.68
2023-03-04T10:34:02.686Z,17.70
2023-03-04T10:36:33.206Z,18.58
2023-03-04T10:39:09.239Z,17.72
2023-03-04T10:41:44.666Z,17.43
2023-03-04T10:44:19.150Z,16.68
2023-03-04T10:46:50.976Z,17.37
2023-03-04T10:49:21.337Z,18.59
2023-03-04T10:52:03.406Z,18.99
2023-03-04T10:54:46.789Z,18.69
2023-03-04T10:57:29.529Z,18.18
2023-03-04T11:00:19.097Z,17.57
2023-03-04T11:02:50.052Z,17.00
2023-03-04T11:05:23.540Z,15.98
2023-03-04T11:07:59.829Z,15.43
2023-03-04T11:10:37.225Z,15.07
2023-03-04T11:13:13.204Z,14.67
2023-03-04T11:15:58.499Z,14.32
2023-03-04T11:18:39.487Z,13.77
2023-03-04T11:21:14.788Z,13.55
2023-03-04T11:24:04.116Z,13.24
2023-03-04T11:26:44.349Z,13.95
2023-03-04T11:29:19.290Z,14.96
2023-03-04T11:32:01.898Z,16.05
2023-03-04T11:34:39.490Z,15.86
2023-03-04T11:37:22.409Z,16.96
2023-03-04T11:39:57.657Z,18.24
2023-03-04T11:42:43.062Z,18.31
2023-03-04T11:45:28.222Z,17.88
2023-03-04T11:48:32.613Z,18.66
2023-03-04T11:51:19.894Z,20.24
2023-03-04T11:54:18.315Z,21.34
2023-03-04T11:57:26.277Z,22.99
2023-03-04T12:00:33.058Z,23.37
2023-03-04T12:03:40.037Z,23.53
2023-03-04T12:06:33.715Z,21.82
2023-03-04T12:09:35.499Z,21.17
2023-03-04T12:12:30.601Z,19.67
2023-03-04T12:15:07.650Z,19.55
2023-03-04T12:18:03.302Z,18.93
2023-03-04T12:20:59.790Z,17.72
2023-03-04T12:23:35.127Z,17.35
2023-03-04T12:26:49.671Z,17.06
2023-03-04T12:29:57.717Z,17.37
2023-03-04T12:32:46.453Z,17.02
2023-03-04T12:35:38.180Z,17.86
2023-03-04T12:38:28.763Z,18.09
2023-03-04T12:41:03.674Z,17.64
2023-03-04T12:44:08.121Z,16.98
2023-03-04T12:47:12.614Z,16.70
2023-03-04T12:50:05.046Z,15.80
2023-03-04T12:53:18.108Z,16.30
2023-03-04T12:55:50.877Z,15.92
2023-03-04T12:58:27.430Z,15.41
2023-03-04T13:01:17.279Z,15.59
2023-03-04T13:04:09.945Z,15.81
2023-03-04T13:06:50.328Z,17.09
2023-03-04T13:09:43.242Z,17.60
2023-03-04T13:12:21.627Z,17.35
2023-03-04T13:15:10.060Z,16.77
2023-03-04T13:17:46.391Z,16.84
2023-03-04T13:20:31.465Z,16.78
2023-03-04T13:23:06.123Z,16.87
2023-03-04T13:25:44.728Z,16.62
2023-03-04T13:28:21.917Z,16.33
2023-03-04T13:30:59.922Z,16.55
2023-03-04T13:33:40.394Z,17.17
2023-03-04T13:36:34.593Z,17.56
2023-03-04T13:39:24.545Z,17.17
2023-03-04T13:41:55.795Z,17.20
2023-03-04T13:44:45.220Z,17.19
2023-03-04T13:47:21.669Z,17.17
2023-03-04T13:49:51.272Z,17.08
2023-03-04T13:52:41.391Z,16.70
2023-03-04T13:55:35.915Z,17.04
2023-03-04T13:58:21.256Z,17.15
2023-03-04T14:00:54.447Z,16.93
2023-03-04T14:03:31.118Z,16.73
2023-03-04T14:06:17.811Z,16.71
2023-03-04T14:08:48.056Z,16.90
2023-03-04T14:11:21.932Z,16.60
2023-03-04T14:13:51.951Z,16.92
2023-03-04T14:16:22.779Z,17.34
2023-03-04T14:19:07.945Z,17.90
2023-03-04T14:21:37.587Z,17.40
2023-03-04T14:24:14.668Z,17.19
2023-03-04T14:26:43.903Z,17.12
2023-03-04T14:29:40.179Z,17.28
2023-03-04T14:32:09.457Z,17.13
2023-03-04T14:34:40.687Z,17.44
2023-03-04T14:37:44.895Z,17.57
2023-03-04T14:40:26.696Z,18.01
2023-03-04T14:43:08.662Z,18.26
2023-03-04T14:45:37.861Z,18.48
2023-03-04T14:48:08.076Z,18.23
2023-03-04T14:50:37.851Z,18.79
2023-03-04T14:53:09.976Z,18.63
2023-03-04T14:55:39.052Z,18.45
2023-03-04T14:58:22.395Z,18.38
2023-03-04T15:01:08.908Z,19.13
2023-03-04T15:03:37.911Z,19.57
2023-03-04T15:06:20.162Z,19.49
2023-03-04T15:09:26.307Z,19.10
2023-03-04T15:12:09.914Z,19.36
2023-03-04T15:14:43.453Z,19.49
2023-03-04T15:17:30.630Z,20.05
2023-03-04T15:20:27.791Z,20.64
2023-03-04T15:22:59.844Z,21.03
2023-03-04T15:25:29.664Z,20.91
2023-03-04T15:28:00.514Z,21.21
2023-03-04T15:30:34.397Z,21.21
2023-03-04T15:33:03.147Z,21.37
2023-03-04T15:35:33.787Z,21.82
2023-03-04T15:38:03.378Z,22.31
2023-03-04T15:40:42.491Z,22.81
2023-03-04T15:43:17.231Z,22.78
2023-03-04T15:45:47.261Z,22.80
2023-03-04T15:48:18.699Z,22.56
2023-03-04T15:51:00.078Z,22.65
2023-03-04T15:53:36.423Z,22.91
2023-03-04T15:56:08.872Z,23.29
2023-03-04T15:58:38.134Z,23.54
2023-03-04T16:01:07.005Z,23.56
2023-03-04T16:03:35.790Z,24.12
2023-03-04T16:06:08.711Z,24.29
2023-03-04T16:08:38.878Z,24.65
2023-03-04T16:11:15.829Z,24.84
2023-03-04T16:13:44.694Z,25.29
2023-03-04T16:16:15.297Z,25.74
2023-03-04T16:18:45.316Z,26.09
2023-03-04T16:21:24.146Z,26.26
2023-03-04T16:23:55.014Z,26.40
2023-03-04T16:26:26.740Z,26.66
2023-03-04T16:28:55.899Z,27.17
2023-03-04T16:31:25.128Z,27.58
2023-03-04T16:33:54.175Z,27.73
2023-03-04T16:36:26.284Z,27.70
2023-03-04T16:39:02.913Z,28.37
2023-03-04T16:41:32.745Z,28.84
2023-03-04T16:44:02.406Z,29.02
2023-03-04T16:46:31.281Z,29.18
2023-03-04T16:49:00.861Z,29.68
2023-03-04T16:51:31.158Z,30.39
2023-03-04T16:54:01.288Z,30.81
2023-03-04T16:56:30.630Z,31.09
2023-03-04T16:59:00.596Z,31.52
2023-03-04T17:01:31.341Z,32.01
2023-03-04T17:04:01.833Z,32.40
2023-03-04T17:06:34.848Z,32.72
2023-03-04T17:09:04.738Z,32.91
2023-03-04T17:11:35.457Z,33.35
2023-03-04T17:14:05.455Z,33.67
2023-03-04T17:16:34.451Z,33.87
2023-03-04T17:19:03.471Z,34.00
2023-03-04T17:21:33.153Z,34.55
2023-03-04T17:24:03.817Z,35.06
2023-03-04T17:26:33.746Z,35.19
2023-03-04T17:29:04.342Z,35.36
2023-03-04T17:31:34.176Z,35.70
2023-03-04T17:34:04.642Z,35.76
2023-03-04T17:36:35.120Z,35.88
2023-03-04T17:39:07.388Z,36.09
2023-03-04T17:41:37.179Z,36.54
2023-03-04T17:44:06.824Z,36.87
2023-03-04T17:46:36.287Z,37.02
2023-03-04T17:49:06.933Z,37.52
2023-03-04T17:51:41.157Z,38.18
2023-03-04T17:54:12.057Z,38.93
2023-03-04T17:56:43.806Z,39.45
2023-03-04T17:59:16.813Z,39.77
2023-03-04T18:01:47.924Z,40.03
2023-03-04T18:04:18.835Z,40.09
2023-03-04T18:06:48.389Z,40.22
2023-03-04T18:09:17.773Z,40.03
2023-03-04T18:11:46.879Z,40.03
2023-03-04T18:14:16.414Z,40.50
2023-03-04T18:16:45.762Z,41.02
2023-03-04T18:19:18.513Z,40.97
2023-03-04T18:21:47.880Z,40.97
2023-03-04T18:24:17.890Z,40.68
2023-03-04T18:26:47.442Z,40.21
2023-03-04T18:29:16.470Z,39.77
2023-03-04T18:31:45.922Z,39.47
2023-03-04T18:34:15.228Z,39.36
2023-03-04T18:36:45.018Z,40.10
2023-03-04T18:39:17.696Z,41.05
2023-03-04T18:41:47.369Z,41.43
2023-03-04T18:44:17.333Z,42.26
2023-03-04T18:46:51.043Z,42.23
2023-03-04T18:49:21.695Z,42.30
2023-03-04T18:51:50.703Z,42.19
2023-03-04T18:54:20.079Z,42.37
2023-03-04T18:56:55.350Z,42.73
2023-03-04T18:59:31.524Z,43.04
2023-03-04T19:02:04.474Z,43.27
2023-03-04T19:04:34.090Z,43.49
2023-03-04T19:07:03.409Z,43.52
2023-03-04T19:09:32.751Z,44.08
2023-03-04T19:12:02.888Z,44.32
2023-03-04T19:14:32.981Z,44.43
2023-03-04T19:17:01.987Z,44.44
2023-03-04T19:19:31.363Z,44.75
2023-03-04T19:22:01.193Z,44.98
2023-03-04T19:24:31.637Z,44.97
2023-03-04T19:27:00.954Z,45.20
2023-03-04T19:29:30.696Z,45.46
2023-03-04T19:32:00.331Z,45.59
2023-03-04T19:34:30.120Z,45.49
2023-03-04T19:36:59.281Z,45.29
2023-03-04T19:39:29.405Z,45.10
2023-03-04T19:41:58.736Z,45.05
2023-03-04T19:44:27.961Z,45.16
2023-03-04T19:46:57.976Z,45.48
2023-03-04T19:49:27.487Z,45.85
2023-03-04T19:51:56.978Z,46.48
2023-03-04T19:54:31.560Z,46.47
2023-03-04T19:57:01.776Z,47.10
2023-03-04T19:59:31.286Z,47.51
2023-03-04T20:02:01.827Z,47.75
2023-03-04T20:04:31.285Z,47.54
2023-03-04T20:07:01.804Z,47.56
2023-03-04T20:09:32.013Z,47.61
2023-03-04T20:12:01.568Z,47.74
2023-03-04T20:14:33.734Z,47.99
2023-03-04T20:17:07.323Z,47.96
2023-03-04T20:19:36.911Z,48.43
2023-03-04T20:22:07.457Z,48.26
2023-03-04T20:24:37.110Z,48.26
2023-03-04T20:27:06.246Z,48.22
2023-03-04T20:29:35.960Z,48.39
2023-03-04T20:32:05.899Z,48.52
2023-03-04T20:34:37.641Z,48.28
2023-03-04T20:37:07.248Z,48.53
2023-03-04T20:39:38.008Z,48.77
2023-03-04T20:42:07.632Z,48.91
2023-03-04T20:44:37.177Z,49.15
2023-03-04T20:47:07.332Z,49.17
2023-03-04T20:49:37.045Z,49.54
2023-03-04T20:52:10.077Z,49.71
2023-03-04T20:54:40.903Z,49.86
2023-03-04T20:57:11.334Z,50.00
2023-03-04T20:59:42.072Z,50.42
2023-03-04T21:02:15.916Z,50.34
2023-03-04T21:04:45.210Z,50.28
2023-03-04T21:07:14.356Z,50.33
2023-03-04T21:09:44.552Z,50.53
2023-03-04T21:12:13.734Z,50.69
2023-03-04T21:14:43.162Z,51.00
2023-03-04T21:17:13.372Z,50.91
2023-03-04T21:19:44.049Z,50.96
2023-03-04T21:22:19.677Z,51.27
2023-03-04T21:24:48.597Z,51.48
2023-03-04T21:27:17.973Z,52.12
2023-03-04T21:29:47.296Z,52.17
2023-03-04T21:32:34.472Z,52.05
2023-03-04T21:35:03.909Z,52.05
2023-03-04T21:37:33.823Z,52.21
2023-03-04T21:40:02.971Z,51.84
2023-03-04T21:42:33.168Z,51.63
2023-03-04T21:45:02.940Z,51.50
2023-03-04T21:47:32.094Z,51.41
2023-03-04T21:50:01.935Z,51.61
2023-03-04T21:52:32.025Z,51.19
2023-03-04T21:55:01.478Z,51.23
2023-03-04T21:57:31.050Z,51.16
2023-03-04T22:00:01.482Z,51.84
2023-03-04T22:02:31.381Z,51.78
2023-03-04T22:05:01.637Z,51.92
2023-03-04T22:07:31.611Z,52.21
2023-03-04T22:10:04.312Z,52.19
2023-03-04T22:12:33.800Z,52.60
2023-03-04T22:15:02.873Z,52.81
2023-03-04T22:17:34.548Z,52.83
2023-03-04T22:20:04.423Z,52.75
2023-03-04T22:22:33.365Z,52.76
2023-03-04T22:25:02.402Z,53.29
2023-03-04T22:27:31.765Z,53.14
2023-03-04T22:30:00.708Z,53.34
2023-03-04T22:32:30.196Z,53.83
2023-03-04T22:34:59.938Z,53.80
2023-03-04T22:37:29.526Z,54.01
2023-03-04T22:39:59.851Z,53.98
2023-03-04T22:42:28.838Z,53.63
2023-03-04T22:44:58.028Z,53.66
2023-03-04T22:47:27.260Z,53.72
2023-03-04T22:49:57.489Z,54.09
2023-03-04T22:52:26.534Z,54.31
2023-03-04T22:54:55.859Z,54.45
2023-03-04T22:57:25.448Z,54.74
2023-03-04T22:59:56.534Z,55.24
2023-03-04T23:02:25.978Z,55.02
2023-03-04T23:04:55.388Z,55.37
2023-03-04T23:07:25.591Z,55.54
2023-03-04T23:09:54.638Z,55.76
2023-03-04T23:12:23.340Z,55.95
2023-03-04T23:14:52.506Z,55.94
2023-03-04T23:17:21.761Z,55.80
2023-03-04T23:19:50.757Z,55.85
2023-03-04T23:22:20.339Z,55.87
2023-03-04T23:24:50.290Z,55.90
2023-03-04T23:27:19.403Z,56.44
2023-03-04T23:29:49.187Z,56.50
2023-03-04T23:32:18.546Z,56.51
2023-03-04T23:34:53.358Z,56.55
2023-03-04T23:37:23.035Z,56.41
2023-03-04T23:39:52.170Z,55.95
2023-03-04T23:42:21.098Z,55.86
2023-03-04T23:44:50.255Z,56.06
2023-03-04T23:47:19.203Z,56.27
2023-03-04T23:49:48.288Z,56.26
2023-03-04T23:52:17.491Z,55.88
2023-03-04T23:54:46.554Z,56.21
2023-03-04T23:57:15.453Z,56.22
2023-03-04T23:59:44.613Z,56.11
